createdAt,value
2017-07-28T00:01:48.287Z,16.60
2017-07-28T00:04:15.769Z,16.60
2017-07-28T00:06:43.249Z,16.50
2017-07-28T00:09:10.702Z,16.50
2017-07-28T00:11:38.935Z,16.50
2017-07-28T00:14:06.379Z,16.50
2017-07-28T00:16:33.858Z,16.50
2017-07-28T00:19:01.322Z,16.60
2017-07-28T00:21:28.789Z,16.70
2017-07-28T00:23:56.251Z,16.70
2017-07-28T00:26:23.810Z,16.70
2017-07-28T00:28:51.369Z,16.80
2017-07-28T00:31:18.851Z,16.80
2017-07-28T00:33:47.074Z,16.70
2017-07-28T00:36:14.569Z,16.70
2017-07-28T00:38:42.036Z,16.60
2017-07-28T00:41:09.502Z,16.60
2017-07-28T00:43:37.746Z,16.60
2017-07-28T00:46:05.202Z,16.60
2017-07-28T00:48:32.680Z,16.60
2017-07-28T00:51:00.227Z,16.60
2017-07-28T00:53:27.795Z,16.60
2017-07-28T00:55:55.256Z,16.50
2017-07-28T00:58:22.817Z,16.40
2017-07-28T01:00:50.367Z,16.40
2017-07-28T01:03:17.835Z,16.40
2017-07-28T01:05:45.302Z,16.20
2017-07-28T01:08:12.762Z,16.20
2017-07-28T01:10:40.222Z,16.00
2017-07-28T01:13:07.703Z,15.90
2017-07-28T01:15:35.934Z,15.50
2017-07-28T01:18:03.406Z,15.50
2017-07-28T01:20:30.866Z,15.50
2017-07-28T01:22:58.340Z,15.60
2017-07-28T01:25:25.795Z,15.60
2017-07-28T01:27:53.266Z,15.60
2017-07-28T01:30:21.547Z,15.30
2017-07-28T01:32:49.782Z,15.40
2017-07-28T01:35:17.239Z,15.30
2017-07-28T01:37:44.716Z,15.30
2017-07-28T01:40:12.171Z,15.30
2017-07-28T01:42:39.644Z,15.30
2017-07-28T01:45:07.194Z,15.30
2017-07-28T01:47:34.666Z,15.30
2017-07-28T01:50:02.943Z,15.00
2017-07-28T01:52:31.315Z,15.00
2017-07-28T01:54:58.856Z,14.90
2017-07-28T01:57:26.318Z,14.90
2017-07-28T01:59:53.878Z,14.70
2017-07-28T02:02:21.338Z,14.50
2017-07-28T02:04:48.806Z,14.30
2017-07-28T02:07:16.272Z,14.10
2017-07-28T02:09:43.815Z,14.00
2017-07-28T02:12:11.391Z,14.10
2017-07-28T02:14:38.938Z,14.20
2017-07-28T02:17:06.423Z,14.30
2017-07-28T02:19:34.668Z,14.30
2017-07-28T02:22:02.137Z,14.30
2017-07-28T02:24:29.606Z,14.40
2017-07-28T02:26:57.846Z,14.50
2017-07-28T02:29:25.316Z,14.50
2017-07-28T02:31:52.896Z,14.50
2017-07-28T02:34:20.365Z,14.50
2017-07-28T02:36:48.598Z,14.30
2017-07-28T02:39:16.176Z,14.30
2017-07-28T02:41:43.739Z,14.10
2017-07-28T02:44:11.300Z,14.20
2017-07-28T02:46:38.772Z,14.20
2017-07-28T02:49:07.035Z,14.20
2017-07-28T02:51:34.516Z,14.20
2017-07-28T02:54:02.767Z,14.00
2017-07-28T02:56:30.327Z,14.00
2017-07-28T02:58:57.811Z,14.00
2017-07-28T03:01:25.684Z,14.00
2017-07-28T03:03:53.919Z,14.00
2017-07-28T03:06:21.400Z,14.00
2017-07-28T03:08:48.947Z,14.00
2017-07-28T03:11:16.423Z,14.00
2017-07-28T03:13:44.788Z,14.00
2017-07-28T03:16:13.650Z,14.00
2017-07-28T03:18:41.115Z,14.00
2017-07-28T03:21:08.596Z,13.90
2017-07-28T03:23:36.162Z,14.00
2017-07-28T03:26:03.725Z,14.00
2017-07-28T03:28:31.282Z,14.00
2017-07-28T03:30:59.549Z,13.90
2017-07-28T03:33:27.015Z,13.90
2017-07-28T03:35:54.486Z,13.80
2017-07-28T03:38:22.727Z,13.60
2017-07-28T03:40:50.194Z,13.70
2017-07-28T03:43:17.762Z,13.70
2017-07-28T03:45:45.237Z,13.70
2017-07-28T03:48:13.490Z,13.70
2017-07-28T03:50:40.957Z,13.70
2017-07-28T03:53:08.523Z,13.60
2017-07-28T03:55:35.991Z,13.60
2017-07-28T03:58:05.092Z,13.60
2017-07-28T04:00:33.322Z,13.60
2017-07-28T04:03:00.788Z,13.60
2017-07-28T04:05:28.260Z,13.50
2017-07-28T04:07:55.716Z,13.50
2017-07-28T04:10:23.283Z,13.50
2017-07-28T04:12:50.767Z,13.60
2017-07-28T04:15:19.000Z,13.50
2017-07-28T04:17:46.468Z,13.60
2017-07-28T04:20:13.936Z,13.50
2017-07-28T04:22:41.494Z,13.50
2017-07-28T04:25:08.963Z,13.50
2017-07-28T04:27:37.225Z,13.60
2017-07-28T04:30:04.779Z,13.60
2017-07-28T04:32:32.242Z,13.60
2017-07-28T04:34:59.709Z,13.70
2017-07-28T04:37:27.256Z,13.70
2017-07-28T04:39:54.824Z,13.70
2017-07-28T04:42:22.299Z,13.80
2017-07-28T04:44:50.551Z,13.80
2017-07-28T04:47:18.031Z,13.70
2017-07-28T04:49:46.273Z,14.10
2017-07-28T04:52:13.751Z,14.00
2017-07-28T04:54:41.312Z,14.20
2017-07-28T04:57:08.787Z,14.30
2017-07-28T04:59:37.049Z,14.40
2017-07-28T05:02:04.521Z,14.40
2017-07-28T05:04:32.771Z,14.60
2017-07-28T05:07:00.337Z,14.60
2017-07-28T05:09:28.584Z,14.70
2017-07-28T05:11:56.070Z,14.60
2017-07-28T05:14:23.563Z,14.70
2017-07-28T05:16:51.041Z,14.70
2017-07-28T05:19:18.575Z,14.80
2017-07-28T05:21:46.097Z,14.90
2017-07-28T05:24:13.658Z,14.90
2017-07-28T05:26:41.151Z,15.00
2017-07-28T05:29:09.388Z,15.00
2017-07-28T05:31:36.863Z,15.10
2017-07-28T05:34:04.333Z,15.10
2017-07-28T05:36:32.600Z,15.20
2017-07-28T05:39:00.076Z,15.20
2017-07-28T05:41:28.336Z,15.30
2017-07-28T05:43:55.889Z,15.20
2017-07-28T05:46:23.452Z,15.30
2017-07-28T05:48:51.006Z,15.40
2017-07-28T05:51:18.493Z,15.40
2017-07-28T05:53:46.728Z,15.30
2017-07-28T05:56:14.213Z,15.30
2017-07-28T05:58:41.678Z,15.30
2017-07-28T06:01:09.904Z,15.20
2017-07-28T06:03:37.371Z,15.20
2017-07-28T06:06:04.844Z,15.20
2017-07-28T06:08:32.315Z,15.20
2017-07-28T06:10:59.778Z,15.30
2017-07-28T06:13:28.019Z,15.40
2017-07-28T06:15:55.493Z,15.40
2017-07-28T06:18:22.958Z,15.40
2017-07-28T06:20:50.447Z,15.30
2017-07-28T06:23:18.684Z,15.50
2017-07-28T06:25:46.164Z,15.40
2017-07-28T06:28:13.644Z,15.60
2017-07-28T06:30:41.106Z,15.70
2017-07-28T06:33:08.603Z,15.80
2017-07-28T06:35:36.089Z,15.80
2017-07-28T06:38:03.569Z,15.90
2017-07-28T06:40:31.803Z,16.00
2017-07-28T06:42:59.275Z,16.00
2017-07-28T06:45:26.739Z,16.10
2017-07-28T06:47:54.209Z,16.10
2017-07-28T06:50:22.446Z,16.20
2017-07-28T06:52:49.922Z,16.20
2017-07-28T06:55:17.418Z,16.20
2017-07-28T06:57:44.894Z,16.20
2017-07-28T07:00:12.369Z,16.20
2017-07-28T07:02:39.847Z,16.30
2017-07-28T07:05:07.320Z,16.30
2017-07-28T07:07:34.795Z,16.40
2017-07-28T07:10:03.038Z,16.70
2017-07-28T07:12:30.503Z,16.60
2017-07-28T07:14:58.390Z,16.80
2017-07-28T07:17:25.909Z,17.00
2017-07-28T07:19:53.415Z,17.10
2017-07-28T07:22:21.654Z,17.40
2017-07-28T07:24:49.132Z,17.40
2017-07-28T07:27:16.598Z,17.60
2017-07-28T07:29:44.077Z,17.70
2017-07-28T07:32:12.314Z,17.90
2017-07-28T07:34:39.783Z,17.90
2017-07-28T07:37:07.247Z,18.10
2017-07-28T07:39:34.717Z,18.30
2017-07-28T07:42:02.179Z,18.40
2017-07-28T07:44:30.436Z,18.70
2017-07-28T07:46:57.907Z,18.60
2017-07-28T07:49:25.394Z,18.70
2017-07-28T07:51:52.851Z,18.70
2017-07-28T07:54:20.331Z,18.50
2017-07-28T07:56:47.813Z,18.50
2017-07-28T07:59:15.285Z,18.30
2017-07-28T08:01:42.754Z,18.30
2017-07-28T08:04:10.998Z,18.40
2017-07-28T08:06:38.503Z,18.40
2017-07-28T08:09:06.792Z,18.40
2017-07-28T08:11:35.037Z,18.30
2017-07-28T08:14:02.527Z,18.30
2017-07-28T08:16:30.013Z,18.50
2017-07-28T08:18:57.479Z,18.70
2017-07-28T08:21:24.952Z,18.80
2017-07-28T08:23:52.434Z,18.90
2017-07-28T08:26:19.920Z,18.90
2017-07-28T08:28:47.404Z,18.90
2017-07-28T08:31:14.863Z,18.90
2017-07-28T08:33:42.723Z,19.10
2017-07-28T08:36:10.187Z,19.30
2017-07-28T08:38:37.656Z,19.40
2017-07-28T08:41:05.127Z,19.60
2017-07-28T08:43:32.593Z,19.80
2017-07-28T08:46:00.083Z,20.00
2017-07-28T08:48:28.304Z,20.00
2017-07-28T08:50:55.782Z,20.00
2017-07-28T08:53:23.266Z,19.90
2017-07-28T08:55:50.731Z,19.60
2017-07-28T08:58:18.962Z,19.60
2017-07-28T09:00:46.426Z,19.60
2017-07-28T09:03:13.904Z,19.80
2017-07-28T09:05:41.371Z,19.90
2017-07-28T09:08:08.850Z,19.80
2017-07-28T09:10:36.315Z,19.70
2017-07-28T09:13:03.775Z,19.90
2017-07-28T09:15:31.257Z,20.30
2017-07-28T09:17:59.484Z,20.60
2017-07-28T09:20:26.964Z,20.60
2017-07-28T09:22:54.536Z,20.70
2017-07-28T09:25:22.084Z,20.60
2017-07-28T09:27:50.421Z,20.70
2017-07-28T09:30:17.943Z,20.90
2017-07-28T09:32:46.185Z,21.40
2017-07-28T09:35:13.651Z,21.40
2017-07-28T09:37:41.216Z,21.60
2017-07-28T09:40:08.690Z,21.50
2017-07-28T09:42:36.150Z,21.70
2017-07-28T09:45:04.397Z,21.00
2017-07-28T09:47:31.875Z,21.00
2017-07-28T09:49:59.432Z,20.90
2017-07-28T09:52:26.990Z,21.00
2017-07-28T09:54:54.551Z,21.10
2017-07-28T09:57:22.020Z,21.20
2017-07-28T09:59:50.284Z,21.00
2017-07-28T10:02:17.862Z,21.00
2017-07-28T10:04:45.324Z,20.90
2017-07-28T10:07:13.559Z,20.60
2017-07-28T10:09:41.025Z,20.50
2017-07-28T10:12:08.506Z,20.50
2017-07-28T10:14:35.986Z,20.40
2017-07-28T10:17:03.451Z,20.30
2017-07-28T10:19:30.925Z,20.20
2017-07-28T10:21:58.397Z,20.20
2017-07-28T10:24:26.628Z,20.20
2017-07-28T10:26:54.124Z,20.20
2017-07-28T10:29:22.381Z,20.30
2017-07-28T10:31:49.847Z,20.20
2017-07-28T10:34:17.303Z,20.30
2017-07-28T10:36:44.785Z,20.60
2017-07-28T10:39:13.026Z,20.70
2017-07-28T10:41:40.490Z,20.70
2017-07-28T10:44:07.950Z,20.80
2017-07-28T10:46:35.452Z,20.80
2017-07-28T10:49:03.671Z,21.00
2017-07-28T10:51:31.139Z,21.00
2017-07-28T10:53:58.599Z,21.10
2017-07-28T10:56:26.074Z,21.20
2017-07-28T10:58:53.536Z,21.30
2017-07-28T11:01:22.606Z,21.60
2017-07-28T11:03:50.069Z,21.50
2017-07-28T11:06:17.544Z,21.60
2017-07-28T11:08:44.998Z,21.70
2017-07-28T11:11:12.466Z,21.90
2017-07-28T11:13:39.930Z,22.20
2017-07-28T11:16:08.164Z,22.20
2017-07-28T11:18:35.636Z,22.20
2017-07-28T11:21:03.139Z,22.00
2017-07-28T11:23:31.393Z,22.10
2017-07-28T11:25:58.861Z,22.00
2017-07-28T11:28:26.335Z,22.10
2017-07-28T11:30:54.606Z,22.10
2017-07-28T11:33:22.146Z,22.00
2017-07-28T11:35:49.638Z,22.10
2017-07-28T11:38:17.917Z,22.10
2017-07-28T11:40:45.391Z,22.00
2017-07-28T11:43:12.920Z,22.10
2017-07-28T11:45:41.181Z,22.50
2017-07-28T11:48:08.675Z,22.40
2017-07-28T11:50:36.194Z,22.60
2017-07-28T11:53:03.694Z,22.90
2017-07-28T11:55:31.172Z,23.00
2017-07-28T12:00:49.176Z,23.10
2017-07-28T12:03:16.741Z,23.20
2017-07-28T12:05:44.200Z,22.90
2017-07-28T12:08:11.680Z,23.20
2017-07-28T12:10:39.916Z,22.90
2017-07-28T12:13:07.749Z,22.90
2017-07-28T12:15:35.207Z,23.20
2017-07-28T12:18:02.707Z,23.30
2017-07-28T12:20:30.175Z,23.40
2017-07-28T12:22:57.691Z,23.30
2017-07-28T12:25:25.264Z,23.20
2017-07-28T12:27:52.775Z,23.10
2017-07-28T12:30:20.327Z,23.00
2017-07-28T12:32:47.791Z,22.70
2017-07-28T12:35:15.265Z,22.70
2017-07-28T12:37:43.516Z,22.90
2017-07-28T12:40:10.971Z,22.90
2017-07-28T12:42:38.447Z,23.10
2017-07-28T12:45:05.908Z,23.00
2017-07-28T12:47:34.149Z,22.60
2017-07-28T12:50:01.623Z,22.60
2017-07-28T12:52:29.098Z,22.70
2017-07-28T12:54:56.559Z,22.80
2017-07-28T12:57:24.800Z,22.90
2017-07-28T12:59:52.277Z,22.90
2017-07-28T13:02:19.746Z,22.80
2017-07-28T13:04:47.225Z,22.70
2017-07-28T13:07:15.454Z,23.10
2017-07-28T13:09:42.934Z,23.10
2017-07-28T13:12:10.396Z,23.30
2017-07-28T13:14:39.683Z,23.30
2017-07-28T13:17:07.152Z,23.40
2017-07-28T13:19:34.629Z,23.60
2017-07-28T13:22:02.866Z,23.50
2017-07-28T13:24:30.326Z,23.50
2017-07-28T13:26:57.786Z,23.50
2017-07-28T13:29:25.256Z,23.20
2017-07-28T13:31:52.719Z,23.10
2017-07-28T13:34:20.194Z,23.10
2017-07-28T13:36:47.664Z,23.20
2017-07-28T13:39:15.898Z,23.10
2017-07-28T13:41:43.364Z,23.10
2017-07-28T13:44:10.831Z,23.30
2017-07-28T13:46:43.948Z,23.30
2017-07-28T13:49:12.852Z,22.90
2017-07-28T13:51:40.312Z,22.90
2017-07-28T13:54:07.789Z,22.90
2017-07-28T13:56:35.255Z,22.80
2017-07-28T13:59:02.720Z,23.00
2017-07-28T14:01:30.198Z,23.40
2017-07-28T14:03:57.681Z,23.80
2017-07-28T14:12:08.484Z,23.90
2017-07-28T14:14:36.768Z,24.20
2017-07-28T14:17:05.187Z,24.30
2017-07-28T14:19:32.652Z,24.30
2017-07-28T14:22:00.115Z,24.50
2017-07-28T14:24:27.578Z,24.50
2017-07-28T14:26:55.034Z,24.60
2017-07-28T14:29:22.507Z,24.20
2017-07-28T14:31:51.300Z,23.80
2017-07-28T14:34:20.284Z,23.70
2017-07-28T14:36:48.106Z,23.80
2017-07-28T14:39:16.941Z,23.70
2017-07-28T14:41:45.167Z,23.70
2017-07-28T14:44:12.693Z,23.50
2017-07-28T14:46:40.150Z,23.50
2017-07-28T14:49:07.633Z,23.40
2017-07-28T14:51:36.634Z,23.10
2017-07-28T14:54:04.858Z,22.90
2017-07-28T14:56:32.328Z,22.90
2017-07-28T14:59:00.365Z,22.70
2017-07-28T15:01:27.859Z,22.80
2017-07-28T15:03:55.312Z,22.70
2017-07-28T15:06:22.770Z,22.70
2017-07-28T15:08:50.231Z,22.60
2017-07-28T15:11:17.696Z,22.40
2017-07-28T15:13:45.154Z,22.50
2017-07-28T15:16:12.873Z,22.40
2017-07-28T15:18:40.321Z,22.30
2017-07-28T15:21:07.815Z,22.10
2017-07-28T15:23:35.271Z,22.10
2017-07-28T15:26:02.722Z,22.00
2017-07-28T15:28:30.196Z,21.90
2017-07-28T15:30:57.641Z,21.90
2017-07-28T15:33:32.619Z,22.10
2017-07-28T15:36:00.837Z,22.70
2017-07-28T15:38:28.314Z,22.70
2017-07-28T15:40:55.775Z,22.90
2017-07-28T15:43:23.359Z,23.10
2017-07-28T15:45:51.618Z,23.30
2017-07-28T15:48:19.075Z,23.30
2017-07-28T15:50:46.535Z,23.40
2017-07-28T15:53:14.006Z,23.50
2017-07-28T15:55:41.449Z,23.50
2017-07-28T15:58:08.934Z,23.60
2017-07-28T16:00:36.414Z,23.70
2017-07-28T16:03:04.631Z,23.70
2017-07-28T16:05:32.100Z,23.70
2017-07-28T16:07:59.610Z,23.70
2017-07-28T16:10:27.849Z,23.70
2017-07-28T16:12:55.304Z,23.70
2017-07-28T16:15:22.784Z,23.70
2017-07-28T16:17:51.007Z,23.40
2017-07-28T16:20:18.500Z,23.40
2017-07-28T16:22:45.941Z,23.40
2017-07-28T16:25:13.416Z,23.20
2017-07-28T16:27:40.883Z,23.20
2017-07-28T16:30:08.351Z,23.00
2017-07-28T16:32:36.566Z,23.10
2017-07-28T16:35:04.037Z,23.10
2017-07-28T16:37:31.494Z,23.00
2017-07-28T16:39:58.978Z,23.00
2017-07-28T16:42:26.427Z,22.90
2017-07-28T16:44:53.956Z,22.80
2017-07-28T16:47:21.418Z,22.70
2017-07-28T16:49:48.923Z,22.60
2017-07-28T16:52:16.377Z,22.30
2017-07-28T16:54:43.838Z,22.10
2017-07-28T16:57:11.307Z,21.80
2017-07-28T16:59:39.559Z,21.70
2017-07-28T17:02:07.044Z,21.70
2017-07-28T17:04:34.508Z,21.60
2017-07-28T17:07:02.763Z,21.60
2017-07-28T17:09:30.228Z,21.50
2017-07-28T17:11:57.695Z,21.60
2017-07-28T17:14:25.931Z,21.40
2017-07-28T17:16:53.396Z,21.40
2017-07-28T17:19:20.858Z,21.40
2017-07-28T17:21:48.325Z,21.30
2017-07-28T17:24:15.785Z,21.40
2017-07-28T17:26:43.251Z,21.30
2017-07-28T17:29:10.714Z,21.30
2017-07-28T17:31:38.956Z,21.20
2017-07-28T17:34:06.427Z,21.20
2017-07-28T17:36:33.882Z,21.10
2017-07-28T17:39:01.355Z,21.10
2017-07-28T17:41:28.830Z,21.00
2017-07-28T17:43:57.063Z,20.80
2017-07-28T17:46:24.531Z,20.80
2017-07-28T17:48:51.994Z,20.70
2017-07-28T17:51:19.467Z,20.70
2017-07-28T17:53:46.926Z,20.60
2017-07-28T17:56:14.387Z,20.50
2017-07-28T17:58:41.863Z,20.50
2017-07-28T18:01:10.099Z,20.50
2017-07-28T18:03:37.558Z,20.50
2017-07-28T18:06:05.024Z,20.50
2017-07-28T18:08:32.510Z,20.60
2017-07-28T18:11:00.757Z,20.60
2017-07-28T18:13:28.227Z,20.50
2017-07-28T18:15:55.692Z,20.50
2017-07-28T18:18:23.950Z,20.50
2017-07-28T18:20:51.416Z,20.50
2017-07-28T18:23:18.903Z,20.50
2017-07-28T18:25:46.426Z,20.40
2017-07-28T18:28:13.890Z,20.40
2017-07-28T18:30:41.372Z,20.40
2017-07-28T18:33:09.603Z,20.30
2017-07-28T18:35:37.075Z,20.30
2017-07-28T18:38:04.549Z,20.10
2017-07-28T18:40:32.039Z,20.20
2017-07-28T18:42:59.509Z,20.00
2017-07-28T18:45:26.984Z,19.90
2017-07-28T18:47:54.451Z,19.90
2017-07-28T18:50:21.920Z,19.80
2017-07-28T18:52:49.386Z,19.70
2017-07-28T18:55:16.848Z,19.70
2017-07-28T18:57:44.320Z,19.60
2017-07-28T19:00:12.559Z,19.40
2017-07-28T19:02:40.028Z,19.40
2017-07-28T19:05:07.490Z,19.40
2017-07-28T19:07:34.964Z,19.40
2017-07-28T19:10:02.436Z,19.30
2017-07-28T19:12:29.895Z,19.20
2017-07-28T19:14:57.363Z,19.20
2017-07-28T19:17:24.827Z,19.20
2017-07-28T19:19:52.294Z,19.30
2017-07-28T19:22:20.518Z,19.10
2017-07-28T19:24:47.982Z,19.10
2017-07-28T19:27:15.457Z,19.00
2017-07-28T19:29:42.943Z,18.90
2017-07-28T19:32:11.203Z,18.70
2017-07-28T19:34:38.689Z,18.70
2017-07-28T19:37:06.926Z,18.70
2017-07-28T19:39:34.416Z,18.80
2017-07-28T19:42:02.687Z,18.80
2017-07-28T19:44:30.922Z,18.80
2017-07-28T19:46:58.411Z,18.80
2017-07-28T19:49:25.880Z,18.80
2017-07-28T19:51:54.131Z,18.70
2017-07-28T19:54:21.582Z,18.70
2017-07-28T19:56:49.088Z,18.70
2017-07-28T19:59:16.591Z,18.70
2017-07-28T20:01:44.074Z,18.70
2017-07-28T20:04:11.523Z,18.70
2017-07-28T20:06:39.018Z,18.70
2017-07-28T20:09:07.249Z,18.70
2017-07-28T20:11:34.715Z,18.70
2017-07-28T20:14:02.182Z,18.70
2017-07-28T20:16:29.663Z,18.70
2017-07-28T20:18:57.912Z,18.90
2017-07-28T20:21:25.383Z,18.90
2017-07-28T20:23:52.900Z,18.90
2017-07-28T20:26:20.362Z,18.90
2017-07-28T20:28:47.835Z,18.90
2017-07-28T20:31:15.370Z,19.00
2017-07-28T20:33:42.827Z,19.00
2017-07-28T20:36:10.296Z,19.00
2017-07-28T20:38:37.759Z,19.00
2017-07-28T20:41:05.311Z,19.00
2017-07-28T20:43:32.765Z,19.00
2017-07-28T20:46:00.227Z,19.00
2017-07-28T20:48:27.690Z,19.00
2017-07-28T20:50:55.167Z,18.90
2017-07-28T20:53:22.637Z,18.90
2017-07-28T20:55:50.110Z,18.80
2017-07-28T20:58:18.334Z,18.70
2017-07-28T21:00:45.807Z,18.70
2017-07-28T21:03:13.283Z,18.70
2017-07-28T21:05:40.737Z,18.60
2017-07-28T21:08:08.303Z,18.60
2017-07-28T21:10:35.770Z,18.40
2017-07-28T21:13:03.236Z,18.40
2017-07-28T21:15:31.458Z,18.30
2017-07-28T21:17:58.928Z,18.30
2017-07-28T21:20:26.382Z,18.10
2017-07-28T21:22:53.851Z,18.00
2017-07-28T21:25:21.307Z,18.00
2017-07-28T21:27:48.789Z,18.00
2017-07-28T21:30:16.244Z,18.00
2017-07-28T21:32:45.310Z,18.00
2017-07-28T21:35:12.766Z,18.00
2017-07-28T21:37:40.234Z,17.90
2017-07-28T21:40:07.695Z,17.90
2017-07-28T21:42:35.166Z,17.90
2017-07-28T21:45:02.617Z,17.80
2017-07-28T21:47:30.082Z,17.70
2017-07-28T21:49:57.575Z,17.70
2017-07-28T21:52:25.867Z,17.70
2017-07-28T21:54:53.331Z,17.70
2017-07-28T21:57:20.798Z,17.70
2017-07-28T21:59:48.259Z,17.60
2017-07-28T22:02:15.735Z,17.60
2017-07-28T22:04:43.195Z,17.60
2017-07-28T22:07:10.663Z,17.60
2017-07-28T22:09:38.119Z,17.60
2017-07-28T22:12:05.583Z,17.60
2017-07-28T22:14:33.050Z,17.60
2017-07-28T22:17:00.503Z,17.50
2017-07-28T22:19:27.973Z,17.60
2017-07-28T22:21:56.201Z,17.40
2017-07-28T22:24:23.704Z,17.40
2017-07-28T22:26:51.960Z,17.30
2017-07-28T22:29:19.429Z,17.20
2017-07-28T22:31:46.896Z,17.20
2017-07-28T22:34:14.358Z,17.30
2017-07-28T22:36:41.818Z,17.30
2017-07-28T22:39:10.063Z,17.30
2017-07-28T22:41:37.539Z,17.30
2017-07-28T22:44:05.007Z,17.40
2017-07-28T22:46:32.466Z,17.50
2017-07-28T22:48:59.931Z,17.50
2017-07-28T22:51:28.166Z,17.60
2017-07-28T22:53:55.635Z,17.60
2017-07-28T22:56:23.094Z,17.70
2017-07-28T22:58:50.558Z,17.80
2017-07-28T23:01:18.019Z,17.80
2017-07-28T23:03:45.499Z,17.80
2017-07-28T23:06:12.963Z,17.80
2017-07-28T23:08:40.435Z,17.80
2017-07-28T23:11:07.895Z,17.90
2017-07-28T23:13:35.359Z,17.90
2017-07-28T23:16:02.820Z,17.80
2017-07-28T23:18:30.292Z,17.80
2017-07-28T23:20:57.744Z,17.80
2017-07-28T23:23:25.215Z,17.70
2017-07-28T23:25:52.674Z,17.60
2017-07-28T23:28:20.138Z,17.60
2017-07-28T23:30:47.605Z,17.70
2017-07-28T23:33:15.072Z,17.70
2017-07-28T23:35:42.534Z,17.70
2017-07-28T23:38:09.996Z,17.70
2017-07-28T23:40:37.460Z,17.70
2017-07-28T23:43:04.915Z,17.70
2017-07-28T23:45:32.385Z,17.70
2017-07-28T23:48:01.000Z,17.60
2017-07-28T23:50:28.463Z,17.60
2017-07-28T23:52:55.927Z,17.70
2017-07-28T23:55:23.390Z,17.70
2017-07-28T23:57:50.847Z,17.70
